sensor_id;sensor_type;location;lat;lon;timestamp;P1;durP1;ratioP1;P2;durP2;ratioP2
1026;SDS011;502;48.746;9.214;2022-12-13T00:02:24;23.40;;;14.50;;
1026;SDS011;502;48.746;9.214;2022-12-13T00:05:11;21.73;;;14.13;;
1026;SDS011;502;48.746;9.214;2022-12-13T00:07:59;19.60;;;13.70;;
1026;SDS011;502;48.746;9.214;2022-12-13T00:10:44;21.80;;;13.27;;
1026;SDS011;502;48.746;9.214;2022-12-13T00:13:29;22.07;;;13.80;;
1026;SDS011;502;48.746;9.214;2022-12-13T00:16:15;29.17;;;15.93;;
1026;SDS011;502;48.746;9.214;2022-12-13T00:19:02;21.30;;;14.20;;
1026;SDS011;502;48.746;9.214;2022-12-13T00:21:49;24.60;;;13.57;;
1026;SDS011;502;48.746;9.214;2022-12-13T00:24:34;22.70;;;15.47;;
1026;SDS011;502;48.746;9.214;2022-12-13T00:27:19;19.83;;;14.17;;
1026;SDS011;502;48.746;9.214;2022-12-13T00:30:05;22.10;;;14.90;;
1026;SDS011;502;48.746;9.214;2022-12-13T00:32:51;20.47;;;13.37;;
1026;SDS011;502;48.746;9.214;2022-12-13T00:35:38;25.30;;;15.30;;
1026;SDS011;502;48.746;9.214;2022-12-13T00:38:25;23.63;;;14.43;;
1026;SDS011;502;48.746;9.214;2022-12-13T00:41:11;28.47;;;15.13;;
1026;SDS011;502;48.746;9.214;2022-12-13T00:43:57;27.37;;;15.30;;
1026;SDS011;502;48.746;9.214;2022-12-13T00:46:43;21.60;;;15.10;;
1026;SDS011;502;48.746;9.214;2022-12-13T00:49:28;23.17;;;14.60;;
1026;SDS011;502;48.746;9.214;2022-12-13T00:52:14;24.47;;;15.87;;
1026;SDS011;502;48.746;9.214;2022-12-13T00:55:00;27.33;;;15.93;;
1026;SDS011;502;48.746;9.214;2022-12-13T00:57:46;23.57;;;14.03;;
1026;SDS011;502;48.746;9.214;2022-12-13T01:00:31;21.60;;;13.13;;
1026;SDS011;502;48.746;9.214;2022-12-13T01:03:16;25.70;;;13.97;;
1026;SDS011;502;48.746;9.214;2022-12-13T01:06:09;23.33;;;14.87;;
1026;SDS011;502;48.746;9.214;2022-12-13T01:08:55;22.30;;;13.90;;
1026;SDS011;502;48.746;9.214;2022-12-13T01:11:41;18.50;;;13.67;;
1026;SDS011;502;48.746;9.214;2022-12-13T01:14:27;18.83;;;12.60;;
1026;SDS011;502;48.746;9.214;2022-12-13T01:17:12;22.17;;;13.87;;
1026;SDS011;502;48.746;9.214;2022-12-13T01:19:58;21.50;;;12.80;;
1026;SDS011;502;48.746;9.214;2022-12-13T01:22:45;21.40;;;13.60;;
1026;SDS011;502;48.746;9.214;2022-12-13T01:25:30;18.47;;;13.27;;
1026;SDS011;502;48.746;9.214;2022-12-13T01:28:17;23.83;;;15.50;;
1026;SDS011;502;48.746;9.214;2022-12-13T01:31:04;20.33;;;13.60;;
1026;SDS011;502;48.746;9.214;2022-12-13T01:33:51;22.60;;;13.73;;
1026;SDS011;502;48.746;9.214;2022-12-13T01:36:36;22.90;;;13.90;;
1026;SDS011;502;48.746;9.214;2022-12-13T01:39:22;23.97;;;15.00;;
1026;SDS011;502;48.746;9.214;2022-12-13T01:42:09;24.90;;;14.60;;
1026;SDS011;502;48.746;9.214;2022-12-13T01:45:02;19.23;;;12.60;;
1026;SDS011;502;48.746;9.214;2022-12-13T01:47:50;24.57;;;14.70;;
1026;SDS011;502;48.746;9.214;2022-12-13T01:50:40;20.87;;;14.87;;
1026;SDS011;502;48.746;9.214;2022-12-13T01:53:27;22.57;;;14.83;;
1026;SDS011;502;48.746;9.214;2022-12-13T01:56:15;20.97;;;12.53;;
1026;SDS011;502;48.746;9.214;2022-12-13T01:59:02;19.90;;;14.40;;
1026;SDS011;502;48.746;9.214;2022-12-13T02:01:50;19.87;;;13.00;;
1026;SDS011;502;48.746;9.214;2022-12-13T02:04:38;22.67;;;13.80;;
1026;SDS011;502;48.746;9.214;2022-12-13T02:07:28;23.07;;;13.83;;
1026;SDS011;502;48.746;9.214;2022-12-13T02:10:15;24.27;;;15.17;;
1026;SDS011;502;48.746;9.214;2022-12-13T02:13:01;22.17;;;13.00;;
1026;SDS011;502;48.746;9.214;2022-12-13T02:15:50;23.97;;;14.70;;
1026;SDS011;502;48.746;9.214;2022-12-13T02:18:46;20.60;;;13.10;;
1026;SDS011;502;48.746;9.214;2022-12-13T02:21:42;17.40;;;13.60;;
1026;SDS011;502;48.746;9.214;2022-12-13T02:24:44;19.00;;;13.00;;
1026;SDS011;502;48.746;9.214;2022-12-13T02:27:50;19.93;;;12.47;;
1026;SDS011;502;48.746;9.214;2022-12-13T02:30:48;18.93;;;13.30;;
1026;SDS011;502;48.746;9.214;2022-12-13T02:33:42;19.30;;;12.20;;
1026;SDS011;502;48.746;9.214;2022-12-13T02:36:33;17.83;;;12.90;;
1026;SDS011;502;48.746;9.214;2022-12-13T02:39:22;20.17;;;11.73;;
1026;SDS011;502;48.746;9.214;2022-12-13T02:42:11;21.50;;;13.53;;
1026;SDS011;502;48.746;9.214;2022-12-13T02:45:02;17.40;;;11.27;;
1026;SDS011;502;48.746;9.214;2022-12-13T02:47:53;18.83;;;11.50;;
1026;SDS011;502;48.746;9.214;2022-12-13T02:50:40;21.40;;;12.30;;
1026;SDS011;502;48.746;9.214;2022-12-13T02:53:26;22.90;;;14.50;;
1026;SDS011;502;48.746;9.214;2022-12-13T02:56:11;24.27;;;14.10;;
1026;SDS011;502;48.746;9.214;2022-12-13T02:58:57;20.60;;;12.77;;
1026;SDS011;502;48.746;9.214;2022-12-13T03:01:46;19.17;;;12.10;;
1026;SDS011;502;48.746;9.214;2022-12-13T03:04:38;17.80;;;11.03;;
1026;SDS011;502;48.746;9.214;2022-12-13T03:07:51;17.17;;;11.40;;
1026;SDS011;502;48.746;9.214;2022-12-13T03:10:46;16.53;;;9.80;;
1026;SDS011;502;48.746;9.214;2022-12-13T03:13:48;19.23;;;11.03;;
1026;SDS011;502;48.746;9.214;2022-12-13T03:16:34;15.47;;;10.83;;
1026;SDS011;502;48.746;9.214;2022-12-13T03:19:22;15.43;;;9.60;;
1026;SDS011;502;48.746;9.214;2022-12-13T03:22:08;17.10;;;11.33;;
1026;SDS011;502;48.746;9.214;2022-12-13T03:24:54;17.30;;;10.47;;
1026;SDS011;502;48.746;9.214;2022-12-13T03:27:39;21.70;;;11.17;;
1026;SDS011;502;48.746;9.214;2022-12-13T03:30:25;21.20;;;11.67;;
1026;SDS011;502;48.746;9.214;2022-12-13T03:33:10;16.63;;;11.00;;
1026;SDS011;502;48.746;9.214;2022-12-13T03:35:56;14.77;;;11.00;;
1026;SDS011;502;48.746;9.214;2022-12-13T03:38:43;17.50;;;11.50;;
1026;SDS011;502;48.746;9.214;2022-12-13T03:41:29;17.90;;;11.17;;
1026;SDS011;502;48.746;9.214;2022-12-13T03:44:15;15.73;;;10.40;;
1026;SDS011;502;48.746;9.214;2022-12-13T03:47:02;14.73;;;10.00;;
1026;SDS011;502;48.746;9.214;2022-12-13T03:49:47;19.50;;;10.97;;
1026;SDS011;502;48.746;9.214;2022-12-13T03:52:32;14.80;;;10.20;;
1026;SDS011;502;48.746;9.214;2022-12-13T03:55:19;13.60;;;8.80;;
1026;SDS011;502;48.746;9.214;2022-12-13T03:58:04;18.13;;;9.17;;
1026;SDS011;502;48.746;9.214;2022-12-13T04:00:50;14.40;;;10.60;;
1026;SDS011;502;48.746;9.214;2022-12-13T04:03:35;14.40;;;8.73;;
1026;SDS011;502;48.746;9.214;2022-12-13T04:06:21;15.27;;;8.53;;
1026;SDS011;502;48.746;9.214;2022-12-13T04:09:07;11.93;;;8.77;;
1026;SDS011;502;48.746;9.214;2022-12-13T04:11:53;17.10;;;9.30;;
1026;SDS011;502;48.746;9.214;2022-12-13T04:14:56;13.53;;;8.20;;
1026;SDS011;502;48.746;9.214;2022-12-13T04:17:42;12.13;;;8.47;;
1026;SDS011;502;48.746;9.214;2022-12-13T04:20:27;16.30;;;9.80;;
1026;SDS011;502;48.746;9.214;2022-12-13T04:23:13;16.80;;;9.87;;
1026;SDS011;502;48.746;9.214;2022-12-13T04:25:58;13.30;;;9.20;;
1026;SDS011;502;48.746;9.214;2022-12-13T04:28:46;17.30;;;10.50;;
1026;SDS011;502;48.746;9.214;2022-12-13T04:31:31;18.53;;;10.67;;
1026;SDS011;502;48.746;9.214;2022-12-13T04:34:16;17.37;;;9.43;;
1026;SDS011;502;48.746;9.214;2022-12-13T04:37:02;11.53;;;8.67;;
1026;SDS011;502;48.746;9.214;2022-12-13T04:39:47;15.90;;;10.40;;
1026;SDS011;502;48.746;9.214;2022-12-13T04:42:32;16.63;;;10.10;;
1026;SDS011;502;48.746;9.214;2022-12-13T04:45:19;14.43;;;10.03;;
1026;SDS011;502;48.746;9.214;2022-12-13T04:48:06;13.77;;;8.27;;
1026;SDS011;502;48.746;9.214;2022-12-13T04:50:51;13.90;;;9.20;;
1026;SDS011;502;48.746;9.214;2022-12-13T04:53:36;13.17;;;8.23;;
1026;SDS011;502;48.746;9.214;2022-12-13T04:56:22;14.17;;;9.40;;
1026;SDS011;502;48.746;9.214;2022-12-13T04:59:08;12.57;;;8.10;;
1026;SDS011;502;48.746;9.214;2022-12-13T05:01:54;10.17;;;7.37;;
1026;SDS011;502;48.746;9.214;2022-12-13T05:04:39;13.00;;;8.23;;
1026;SDS011;502;48.746;9.214;2022-12-13T05:07:25;14.53;;;8.47;;
1026;SDS011;502;48.746;9.214;2022-12-13T05:10:11;13.47;;;8.30;;
1026;SDS011;502;48.746;9.214;2022-12-13T05:12:57;9.27;;;7.03;;
1026;SDS011;502;48.746;9.214;2022-12-13T05:15:42;17.20;;;8.47;;
1026;SDS011;502;48.746;9.214;2022-12-13T05:18:29;12.53;;;8.87;;
1026;SDS011;502;48.746;9.214;2022-12-13T05:21:14;12.10;;;8.53;;
1026;SDS011;502;48.746;9.214;2022-12-13T05:24:00;15.07;;;8.70;;
1026;SDS011;502;48.746;9.214;2022-12-13T05:26:45;13.10;;;8.80;;
1026;SDS011;502;48.746;9.214;2022-12-13T05:29:31;14.77;;;8.93;;
1026;SDS011;502;48.746;9.214;2022-12-13T05:32:16;15.03;;;8.43;;
1026;SDS011;502;48.746;9.214;2022-12-13T05:35:03;11.13;;;8.43;;
1026;SDS011;502;48.746;9.214;2022-12-13T05:37:49;12.27;;;8.27;;
1026;SDS011;502;48.746;9.214;2022-12-13T05:40:35;16.17;;;9.20;;
1026;SDS011;502;48.746;9.214;2022-12-13T05:43:20;12.13;;;7.67;;
1026;SDS011;502;48.746;9.214;2022-12-13T05:46:06;13.70;;;8.93;;
1026;SDS011;502;48.746;9.214;2022-12-13T05:48:51;14.57;;;8.80;;
1026;SDS011;502;48.746;9.214;2022-12-13T05:51:38;18.83;;;8.97;;
1026;SDS011;502;48.746;9.214;2022-12-13T05:54:23;15.53;;;9.50;;
1026;SDS011;502;48.746;9.214;2022-12-13T05:57:09;14.47;;;8.93;;
1026;SDS011;502;48.746;9.214;2022-12-13T05:59:54;15.17;;;9.60;;
1026;SDS011;502;48.746;9.214;2022-12-13T06:02:41;14.03;;;7.70;;
1026;SDS011;502;48.746;9.214;2022-12-13T06:05:27;10.00;;;7.23;;
1026;SDS011;502;48.746;9.214;2022-12-13T06:08:13;15.47;;;9.57;;
1026;SDS011;502;48.746;9.214;2022-12-13T06:10:59;15.70;;;9.33;;
1026;SDS011;502;48.746;9.214;2022-12-13T06:13:48;15.93;;;9.33;;
1026;SDS011;502;48.746;9.214;2022-12-13T06:16:34;10.80;;;8.47;;
1026;SDS011;502;48.746;9.214;2022-12-13T06:19:19;13.60;;;8.53;;
1026;SDS011;502;48.746;9.214;2022-12-13T06:22:05;16.33;;;9.57;;
1026;SDS011;502;48.746;9.214;2022-12-13T06:24:52;16.57;;;10.80;;
1026;SDS011;502;48.746;9.214;2022-12-13T06:27:38;11.17;;;7.77;;
1026;SDS011;502;48.746;9.214;2022-12-13T06:30:23;13.87;;;8.70;;
1026;SDS011;502;48.746;9.214;2022-12-13T06:33:09;10.10;;;7.07;;
1026;SDS011;502;48.746;9.214;2022-12-13T06:35:55;14.33;;;9.70;;
1026;SDS011;502;48.746;9.214;2022-12-13T06:38:41;14.17;;;9.23;;
1026;SDS011;502;48.746;9.214;2022-12-13T06:41:27;13.50;;;8.30;;
1026;SDS011;502;48.746;9.214;2022-12-13T06:44:13;13.03;;;8.93;;
1026;SDS011;502;48.746;9.214;2022-12-13T06:46:58;15.13;;;9.00;;
1026;SDS011;502;48.746;9.214;2022-12-13T06:49:44;11.17;;;7.90;;
1026;SDS011;502;48.746;9.214;2022-12-13T06:52:29;11.73;;;7.03;;
1026;SDS011;502;48.746;9.214;2022-12-13T06:55:15;9.83;;;6.93;;
1026;SDS011;502;48.746;9.214;2022-12-13T06:58:02;13.87;;;7.90;;
1026;SDS011;502;48.746;9.214;2022-12-13T07:00:47;10.70;;;8.10;;
1026;SDS011;502;48.746;9.214;2022-12-13T07:03:33;12.23;;;8.53;;
1026;SDS011;502;48.746;9.214;2022-12-13T07:06:20;12.53;;;8.30;;
1026;SDS011;502;48.746;9.214;2022-12-13T07:09:06;13.20;;;8.37;;
1026;SDS011;502;48.746;9.214;2022-12-13T07:11:52;14.40;;;8.30;;
1026;SDS011;502;48.746;9.214;2022-12-13T07:14:39;13.33;;;7.90;;
1026;SDS011;502;48.746;9.214;2022-12-13T07:17:24;13.87;;;9.40;;
1026;SDS011;502;48.746;9.214;2022-12-13T07:20:10;12.00;;;8.20;;
1026;SDS011;502;48.746;9.214;2022-12-13T07:22:57;14.83;;;9.60;;
1026;SDS011;502;48.746;9.214;2022-12-13T07:25:49;15.53;;;9.70;;
1026;SDS011;502;48.746;9.214;2022-12-13T07:28:36;11.10;;;8.30;;
1026;SDS011;502;48.746;9.214;2022-12-13T07:31:23;14.50;;;8.07;;
1026;SDS011;502;48.746;9.214;2022-12-13T07:34:09;16.93;;;9.87;;
1026;SDS011;502;48.746;9.214;2022-12-13T07:36:55;13.20;;;8.53;;
1026;SDS011;502;48.746;9.214;2022-12-13T07:39:41;12.93;;;8.93;;
1026;SDS011;502;48.746;9.214;2022-12-13T07:42:26;17.60;;;10.30;;
1026;SDS011;502;48.746;9.214;2022-12-13T07:45:12;13.50;;;9.60;;
1026;SDS011;502;48.746;9.214;2022-12-13T07:48:01;11.50;;;8.20;;
1026;SDS011;502;48.746;9.214;2022-12-13T07:50:47;14.53;;;9.53;;
1026;SDS011;502;48.746;9.214;2022-12-13T07:53:33;11.60;;;9.10;;
1026;SDS011;502;48.746;9.214;2022-12-13T07:56:19;16.20;;;9.20;;
1026;SDS011;502;48.746;9.214;2022-12-13T07:59:04;10.77;;;8.10;;
1026;SDS011;502;48.746;9.214;2022-12-13T08:01:49;18.13;;;10.53;;
1026;SDS011;502;48.746;9.214;2022-12-13T08:04:36;16.13;;;9.23;;
1026;SDS011;502;48.746;9.214;2022-12-13T08:07:22;14.93;;;9.17;;
1026;SDS011;502;48.746;9.214;2022-12-13T08:10:07;12.30;;;8.30;;
1026;SDS011;502;48.746;9.214;2022-12-13T08:12:52;12.57;;;8.63;;
1026;SDS011;502;48.746;9.214;2022-12-13T08:15:38;14.97;;;8.30;;
1026;SDS011;502;48.746;9.214;2022-12-13T08:18:23;13.67;;;9.57;;
1026;SDS011;502;48.746;9.214;2022-12-13T08:21:10;14.00;;;9.00;;
1026;SDS011;502;48.746;9.214;2022-12-13T08:23:58;15.63;;;8.90;;
1026;SDS011;502;48.746;9.214;2022-12-13T08:26:43;14.17;;;8.50;;
1026;SDS011;502;48.746;9.214;2022-12-13T08:29:29;13.40;;;7.97;;
1026;SDS011;502;48.746;9.214;2022-12-13T08:32:15;15.70;;;9.50;;
1026;SDS011;502;48.746;9.214;2022-12-13T08:35:00;17.80;;;9.40;;
1026;SDS011;502;48.746;9.214;2022-12-13T08:37:47;15.50;;;9.33;;
1026;SDS011;502;48.746;9.214;2022-12-13T08:40:33;14.80;;;9.13;;
1026;SDS011;502;48.746;9.214;2022-12-13T08:43:18;10.97;;;8.43;;
1026;SDS011;502;48.746;9.214;2022-12-13T08:46:04;14.23;;;8.10;;
1026;SDS011;502;48.746;9.214;2022-12-13T08:48:51;13.97;;;8.77;;
1026;SDS011;502;48.746;9.214;2022-12-13T08:51:37;14.40;;;9.50;;
1026;SDS011;502;48.746;9.214;2022-12-13T08:54:24;14.63;;;9.10;;
1026;SDS011;502;48.746;9.214;2022-12-13T08:57:09;14.63;;;9.67;;
1026;SDS011;502;48.746;9.214;2022-12-13T08:59:55;16.23;;;10.50;;
1026;SDS011;502;48.746;9.214;2022-12-13T09:02:41;14.30;;;8.87;;
1026;SDS011;502;48.746;9.214;2022-12-13T09:05:27;13.90;;;9.47;;
1026;SDS011;502;48.746;9.214;2022-12-13T09:08:12;12.97;;;8.10;;
1026;SDS011;502;48.746;9.214;2022-12-13T09:10:59;11.77;;;7.43;;
1026;SDS011;502;48.746;9.214;2022-12-13T09:13:45;13.87;;;9.13;;
1026;SDS011;502;48.746;9.214;2022-12-13T09:16:30;14.20;;;9.03;;
1026;SDS011;502;48.746;9.214;2022-12-13T09:19:19;12.13;;;8.93;;
1026;SDS011;502;48.746;9.214;2022-12-13T09:22:05;15.00;;;8.13;;
1026;SDS011;502;48.746;9.214;2022-12-13T09:24:50;13.10;;;9.27;;
1026;SDS011;502;48.746;9.214;2022-12-13T09:27:37;14.77;;;9.20;;
1026;SDS011;502;48.746;9.214;2022-12-13T09:30:22;14.10;;;8.07;;
1026;SDS011;502;48.746;9.214;2022-12-13T09:33:08;15.63;;;8.73;;
1026;SDS011;502;48.746;9.214;2022-12-13T09:35:53;11.40;;;7.50;;
1026;SDS011;502;48.746;9.214;2022-12-13T09:38:39;12.60;;;9.53;;
1026;SDS011;502;48.746;9.214;2022-12-13T09:41:26;13.20;;;8.00;;
1026;SDS011;502;48.746;9.214;2022-12-13T09:44:15;11.00;;;6.53;;
1026;SDS011;502;48.746;9.214;2022-12-13T09:47:08;12.00;;;9.30;;
1026;SDS011;502;48.746;9.214;2022-12-13T09:49:57;12.43;;;8.13;;
1026;SDS011;502;48.746;9.214;2022-12-13T09:52:44;15.53;;;8.87;;
1026;SDS011;502;48.746;9.214;2022-12-13T09:55:30;15.70;;;8.47;;
1026;SDS011;502;48.746;9.214;2022-12-13T09:58:19;13.73;;;8.67;;
1026;SDS011;502;48.746;9.214;2022-12-13T10:01:09;14.20;;;9.10;;
1026;SDS011;502;48.746;9.214;2022-12-13T10:03:55;13.63;;;7.50;;
1026;SDS011;502;48.746;9.214;2022-12-13T10:06:43;17.13;;;7.30;;
1026;SDS011;502;48.746;9.214;2022-12-13T10:09:28;11.17;;;8.00;;
1026;SDS011;502;48.746;9.214;2022-12-13T10:12:14;13.37;;;7.10;;
1026;SDS011;502;48.746;9.214;2022-12-13T10:15:00;14.60;;;8.53;;
1026;SDS011;502;48.746;9.214;2022-12-13T10:17:48;11.53;;;7.00;;
1026;SDS011;502;48.746;9.214;2022-12-13T10:20:33;13.90;;;9.40;;
1026;SDS011;502;48.746;9.214;2022-12-13T10:23:19;13.90;;;8.60;;
1026;SDS011;502;48.746;9.214;2022-12-13T10:26:07;10.00;;;7.23;;
1026;SDS011;502;48.746;9.214;2022-12-13T10:28:59;11.30;;;7.07;;
1026;SDS011;502;48.746;9.214;2022-12-13T10:31:46;9.87;;;7.30;;
1026;SDS011;502;48.746;9.214;2022-12-13T10:34:34;9.50;;;6.23;;
1026;SDS011;502;48.746;9.214;2022-12-13T10:37:27;13.33;;;7.83;;
1026;SDS011;502;48.746;9.214;2022-12-13T10:40:29;10.43;;;7.77;;
1026;SDS011;502;48.746;9.214;2022-12-13T10:43:16;11.47;;;7.73;;
1026;SDS011;502;48.746;9.214;2022-12-13T10:46:03;11.80;;;7.50;;
1026;SDS011;502;48.746;9.214;2022-12-13T10:48:49;14.60;;;7.80;;
1026;SDS011;502;48.746;9.214;2022-12-13T10:51:37;8.83;;;6.93;;
1026;SDS011;502;48.746;9.214;2022-12-13T10:54:25;9.90;;;7.40;;
1026;SDS011;502;48.746;9.214;2022-12-13T10:57:11;10.47;;;6.90;;
1026;SDS011;502;48.746;9.214;2022-12-13T10:59:57;11.33;;;7.20;;
1026;SDS011;502;48.746;9.214;2022-12-13T11:02:43;9.70;;;5.90;;
1026;SDS011;502;48.746;9.214;2022-12-13T11:05:38;14.43;;;7.33;;
1026;SDS011;502;48.746;9.214;2022-12-13T11:08:25;11.77;;;8.10;;
1026;SDS011;502;48.746;9.214;2022-12-13T11:11:13;14.77;;;7.03;;
1026;SDS011;502;48.746;9.214;2022-12-13T11:14:01;8.80;;;6.90;;
1026;SDS011;502;48.746;9.214;2022-12-13T11:16:48;10.90;;;6.97;;
1026;SDS011;502;48.746;9.214;2022-12-13T11:19:36;12.23;;;6.33;;
1026;SDS011;502;48.746;9.214;2022-12-13T11:22:24;11.80;;;7.47;;
1026;SDS011;502;48.746;9.214;2022-12-13T11:25:17;10.17;;;6.93;;
1026;SDS011;502;48.746;9.214;2022-12-13T11:28:08;12.37;;;8.00;;
1026;SDS011;502;48.746;9.214;2022-12-13T11:31:03;11.67;;;6.27;;
1026;SDS011;502;48.746;9.214;2022-12-13T11:33:56;14.00;;;7.10;;
1026;SDS011;502;48.746;9.214;2022-12-13T11:36:46;10.00;;;6.87;;
1026;SDS011;502;48.746;9.214;2022-12-13T11:39:35;10.87;;;6.10;;
1026;SDS011;502;48.746;9.214;2022-12-13T11:42:24;7.10;;;5.20;;
1026;SDS011;502;48.746;9.214;2022-12-13T11:45:13;9.07;;;6.60;;
1026;SDS011;502;48.746;9.214;2022-12-13T11:48:02;7.67;;;3.23;;
1026;SDS011;502;48.746;9.214;2022-12-13T11:50:51;10.70;;;6.13;;
1026;SDS011;502;48.746;9.214;2022-12-13T11:53:42;8.30;;;4.87;;
1026;SDS011;502;48.746;9.214;2022-12-13T11:56:33;6.30;;;3.87;;
1026;SDS011;502;48.746;9.214;2022-12-13T11:59:26;14.33;;;6.73;;
1026;SDS011;502;48.746;9.214;2022-12-13T12:02:18;10.10;;;6.20;;
1026;SDS011;502;48.746;9.214;2022-12-13T12:05:05;14.77;;;6.43;;
1026;SDS011;502;48.746;9.214;2022-12-13T12:08:03;8.70;;;5.80;;
1026;SDS011;502;48.746;9.214;2022-12-13T12:10:53;9.77;;;5.40;;
1026;SDS011;502;48.746;9.214;2022-12-13T12:13:42;11.27;;;6.27;;
1026;SDS011;502;48.746;9.214;2022-12-13T12:16:32;9.20;;;5.50;;
1026;SDS011;502;48.746;9.214;2022-12-13T12:19:22;8.70;;;4.47;;
1026;SDS011;502;48.746;9.214;2022-12-13T12:22:10;8.77;;;5.40;;
1026;SDS011;502;48.746;9.214;2022-12-13T12:28:08;7.77;;;5.40;;
1026;SDS011;502;48.746;9.214;2022-12-13T12:31:00;9.20;;;6.27;;
1026;SDS011;502;48.746;9.214;2022-12-13T12:33:52;8.23;;;5.07;;
1026;SDS011;502;48.746;9.214;2022-12-13T12:36:46;5.93;;;3.70;;
1026;SDS011;502;48.746;9.214;2022-12-13T12:39:43;9.03;;;6.30;;
1026;SDS011;502;48.746;9.214;2022-12-13T12:42:44;8.23;;;4.93;;
1026;SDS011;502;48.746;9.214;2022-12-13T12:45:38;9.37;;;5.03;;
1026;SDS011;502;48.746;9.214;2022-12-13T12:48:37;8.87;;;5.90;;
1026;SDS011;502;48.746;9.214;2022-12-13T12:51:38;7.93;;;5.20;;
1026;SDS011;502;48.746;9.214;2022-12-13T12:54:37;10.27;;;5.10;;
1026;SDS011;502;48.746;9.214;2022-12-13T12:57:28;12.43;;;6.67;;
1026;SDS011;502;48.746;9.214;2022-12-13T13:00:22;11.80;;;6.40;;
1026;SDS011;502;48.746;9.214;2022-12-13T13:03:10;8.37;;;5.70;;
1026;SDS011;502;48.746;9.214;2022-12-13T13:06:00;11.53;;;6.93;;
1026;SDS011;502;48.746;9.214;2022-12-13T13:08:50;9.33;;;6.17;;
1026;SDS011;502;48.746;9.214;2022-12-13T13:11:39;9.70;;;6.90;;
1026;SDS011;502;48.746;9.214;2022-12-13T13:14:29;10.07;;;6.33;;
1026;SDS011;502;48.746;9.214;2022-12-13T13:20:28;10.13;;;7.40;;
1026;SDS011;502;48.746;9.214;2022-12-13T13:23:17;12.40;;;6.63;;
1026;SDS011;502;48.746;9.214;2022-12-13T13:26:04;9.03;;;5.80;;
1026;SDS011;502;48.746;9.214;2022-12-13T13:28:49;8.23;;;5.37;;
1026;SDS011;502;48.746;9.214;2022-12-13T13:31:45;9.03;;;6.20;;
1026;SDS011;502;48.746;9.214;2022-12-13T13:34:39;7.07;;;6.00;;
1026;SDS011;502;48.746;9.214;2022-12-13T13:37:27;9.13;;;5.87;;
1026;SDS011;502;48.746;9.214;2022-12-13T13:40:30;10.40;;;4.20;;
1026;SDS011;502;48.746;9.214;2022-12-13T13:43:26;7.40;;;5.03;;
1026;SDS011;502;48.746;9.214;2022-12-13T13:46:12;7.50;;;4.40;;
1026;SDS011;502;48.746;9.214;2022-12-13T13:48:58;8.00;;;5.30;;
1026;SDS011;502;48.746;9.214;2022-12-13T13:55:19;7.20;;;4.73;;
1026;SDS011;502;48.746;9.214;2022-12-13T13:58:17;9.00;;;5.40;;
1026;SDS011;502;48.746;9.214;2022-12-13T14:08:31;9.80;;;5.07;;
1026;SDS011;502;48.746;9.214;2022-12-13T14:11:23;14.67;;;8.80;;
1026;SDS011;502;48.746;9.214;2022-12-13T14:14:52;19.27;;;11.90;;
1026;SDS011;502;48.746;9.214;2022-12-13T14:18:12;10.63;;;6.33;;
1026;SDS011;502;48.746;9.214;2022-12-13T14:21:27;11.97;;;7.30;;
1026;SDS011;502;48.746;9.214;2022-12-13T14:24:19;17.53;;;10.60;;
1026;SDS011;502;48.746;9.214;2022-12-13T14:27:25;10.37;;;6.77;;
1026;SDS011;502;48.746;9.214;2022-12-13T14:30:19;16.43;;;7.50;;
1026;SDS011;502;48.746;9.214;2022-12-13T14:33:10;9.30;;;6.80;;
1026;SDS011;502;48.746;9.214;2022-12-13T14:35:59;10.53;;;6.50;;
1026;SDS011;502;48.746;9.214;2022-12-13T14:38:46;14.67;;;8.20;;
1026;SDS011;502;48.746;9.214;2022-12-13T14:41:31;19.90;;;8.30;;
1026;SDS011;502;48.746;9.214;2022-12-13T14:44:20;13.70;;;9.67;;
1026;SDS011;502;48.746;9.214;2022-12-13T14:47:07;15.73;;;10.93;;
1026;SDS011;502;48.746;9.214;2022-12-13T14:49:55;17.27;;;11.37;;
1026;SDS011;502;48.746;9.214;2022-12-13T14:52:40;16.00;;;10.70;;
1026;SDS011;502;48.746;9.214;2022-12-13T14:55:27;15.93;;;10.50;;
1026;SDS011;502;48.746;9.214;2022-12-13T14:58:16;12.60;;;8.70;;
1026;SDS011;502;48.746;9.214;2022-12-13T15:01:03;15.53;;;9.90;;
1026;SDS011;502;48.746;9.214;2022-12-13T15:03:50;15.10;;;9.30;;
1026;SDS011;502;48.746;9.214;2022-12-13T15:06:35;13.90;;;9.20;;
1026;SDS011;502;48.746;9.214;2022-12-13T15:09:22;15.33;;;7.70;;
1026;SDS011;502;48.746;9.214;2022-12-13T15:12:09;11.10;;;7.70;;
1026;SDS011;502;48.746;9.214;2022-12-13T15:14:57;11.60;;;7.63;;
1026;SDS011;502;48.746;9.214;2022-12-13T15:17:44;14.63;;;7.73;;
1026;SDS011;502;48.746;9.214;2022-12-13T15:20:37;12.43;;;7.40;;
1026;SDS011;502;48.746;9.214;2022-12-13T15:23:35;16.30;;;8.50;;
1026;SDS011;502;48.746;9.214;2022-12-13T15:26:25;13.00;;;8.60;;
1026;SDS011;502;48.746;9.214;2022-12-13T15:29:10;13.33;;;6.80;;
1026;SDS011;502;48.746;9.214;2022-12-13T15:32:00;12.27;;;7.70;;
1026;SDS011;502;48.746;9.214;2022-12-13T15:34:45;9.53;;;7.50;;
1026;SDS011;502;48.746;9.214;2022-12-13T15:37:32;14.60;;;8.30;;
1026;SDS011;502;48.746;9.214;2022-12-13T15:40:17;14.80;;;9.60;;
1026;SDS011;502;48.746;9.214;2022-12-13T15:43:02;18.10;;;8.43;;
1026;SDS011;502;48.746;9.214;2022-12-13T15:45:49;14.90;;;8.20;;
1026;SDS011;502;48.746;9.214;2022-12-13T15:48:35;16.50;;;8.23;;
1026;SDS011;502;48.746;9.214;2022-12-13T15:51:23;15.37;;;9.90;;
1026;SDS011;502;48.746;9.214;2022-12-13T15:54:16;18.80;;;8.33;;
1026;SDS011;502;48.746;9.214;2022-12-13T15:57:10;10.77;;;7.90;;
1026;SDS011;502;48.746;9.214;2022-12-13T16:00:01;12.93;;;9.40;;
1026;SDS011;502;48.746;9.214;2022-12-13T16:03:00;66.73;;;34.13;;
1026;SDS011;502;48.746;9.214;2022-12-13T16:05:50;16.27;;;9.90;;
1026;SDS011;502;48.746;9.214;2022-12-13T16:08:37;18.23;;;8.90;;
1026;SDS011;502;48.746;9.214;2022-12-13T16:11:25;16.50;;;8.90;;
1026;SDS011;502;48.746;9.214;2022-12-13T16:14:23;16.23;;;8.30;;
1026;SDS011;502;48.746;9.214;2022-12-13T16:17:12;12.83;;;7.17;;
1026;SDS011;502;48.746;9.214;2022-12-13T16:20:00;15.47;;;8.70;;
1026;SDS011;502;48.746;9.214;2022-12-13T16:22:45;14.07;;;9.57;;
1026;SDS011;502;48.746;9.214;2022-12-13T16:25:31;13.43;;;8.63;;
1026;SDS011;502;48.746;9.214;2022-12-13T16:28:17;21.67;;;10.10;;
1026;SDS011;502;48.746;9.214;2022-12-13T16:31:08;14.80;;;9.60;;
1026;SDS011;502;48.746;9.214;2022-12-13T16:33:57;16.27;;;8.80;;
1026;SDS011;502;48.746;9.214;2022-12-13T16:36:43;11.53;;;6.90;;
1026;SDS011;502;48.746;9.214;2022-12-13T16:39:28;12.03;;;7.43;;
1026;SDS011;502;48.746;9.214;2022-12-13T16:42:14;11.30;;;7.90;;
1026;SDS011;502;48.746;9.214;2022-12-13T16:45:01;14.30;;;8.07;;
1026;SDS011;502;48.746;9.214;2022-12-13T16:47:46;10.93;;;8.07;;
1026;SDS011;502;48.746;9.214;2022-12-13T16:50:32;11.00;;;7.87;;
1026;SDS011;502;48.746;9.214;2022-12-13T16:53:19;17.23;;;7.70;;
1026;SDS011;502;48.746;9.214;2022-12-13T16:56:05;12.60;;;7.10;;
1026;SDS011;502;48.746;9.214;2022-12-13T16:58:54;9.57;;;6.70;;
1026;SDS011;502;48.746;9.214;2022-12-13T17:01:41;15.00;;;7.13;;
1026;SDS011;502;48.746;9.214;2022-12-13T17:04:26;11.07;;;7.10;;
1026;SDS011;502;48.746;9.214;2022-12-13T17:07:12;14.97;;;7.30;;
1026;SDS011;502;48.746;9.214;2022-12-13T17:09:58;15.73;;;6.90;;
1026;SDS011;502;48.746;9.214;2022-12-13T17:12:43;10.33;;;6.27;;
1026;SDS011;502;48.746;9.214;2022-12-13T17:15:29;10.70;;;7.17;;
1026;SDS011;502;48.746;9.214;2022-12-13T17:18:15;10.40;;;6.20;;
1026;SDS011;502;48.746;9.214;2022-12-13T17:21:04;14.77;;;7.40;;
1026;SDS011;502;48.746;9.214;2022-12-13T17:23:52;9.77;;;6.60;;
1026;SDS011;502;48.746;9.214;2022-12-13T17:26:37;9.37;;;7.17;;
1026;SDS011;502;48.746;9.214;2022-12-13T17:29:23;10.73;;;7.07;;
1026;SDS011;502;48.746;9.214;2022-12-13T17:32:08;8.70;;;6.70;;
1026;SDS011;502;48.746;9.214;2022-12-13T17:34:55;10.33;;;7.20;;
1026;SDS011;502;48.746;9.214;2022-12-13T17:37:40;11.50;;;6.30;;
1026;SDS011;502;48.746;9.214;2022-12-13T17:40:26;13.10;;;7.80;;